createdAt,value
2022-10-23T00:01:27.006Z,8.40
2022-10-23T00:03:54.255Z,8.18
2022-10-23T00:06:20.552Z,7.60
2022-10-23T00:08:47.794Z,7.90
2022-10-23T00:11:15.847Z,7.70
2022-10-23T00:13:42.152Z,7.80
2022-10-23T00:16:08.986Z,7.93
2022-10-23T00:18:35.386Z,8.65
2022-10-23T00:21:02.441Z,7.13
2022-10-23T00:23:28.683Z,7.63
2022-10-23T00:25:54.979Z,6.85
2022-10-23T00:28:21.253Z,6.40
2022-10-23T00:30:47.570Z,8.00
2022-10-23T00:33:13.833Z,7.97
2022-10-23T00:35:40.877Z,7.43
2022-10-23T00:38:07.679Z,7.25
2022-10-23T00:40:34.225Z,8.18
2022-10-23T00:43:00.538Z,7.93
2022-10-23T00:45:28.254Z,7.15
2022-10-23T00:47:55.202Z,6.45
2022-10-23T00:50:22.737Z,6.95
2022-10-23T00:52:50.383Z,8.07
2022-10-23T00:55:17.286Z,6.60
2022-10-23T00:57:44.448Z,7.05
2022-10-23T01:00:15.325Z,6.57
2022-10-23T01:02:41.826Z,7.45
2022-10-23T01:05:08.978Z,7.00
2022-10-23T01:07:47.251Z,6.35
2022-10-23T01:10:22.908Z,7.35
2022-10-23T01:12:49.137Z,7.20
2022-10-23T01:15:18.114Z,7.75
2022-10-23T01:18:03.312Z,6.47
2022-10-23T01:20:32.485Z,5.97
2022-10-23T01:23:17.386Z,7.28
2022-10-23T01:25:58.146Z,7.10
2022-10-23T01:28:32.431Z,7.45
2022-10-23T01:31:01.051Z,6.50
2022-10-23T01:33:33.898Z,6.00
2022-10-23T01:36:01.747Z,5.90
2022-10-23T01:38:52.839Z,6.47
2022-10-23T01:41:19.099Z,8.07
2022-10-23T01:43:51.795Z,7.35
2022-10-23T01:46:18.094Z,7.47
2022-10-23T01:48:47.023Z,7.25
2022-10-23T01:51:13.990Z,7.03
2022-10-23T01:53:41.657Z,7.63
2022-10-23T01:56:10.495Z,7.25
2022-10-23T01:58:37.343Z,6.82
2022-10-23T02:01:05.064Z,6.68
2022-10-23T02:03:32.814Z,6.65
2022-10-23T02:05:59.070Z,5.68
2022-10-23T02:08:25.703Z,6.25
2022-10-23T02:10:55.217Z,6.75
2022-10-23T02:13:41.742Z,5.80
2022-10-23T02:16:23.444Z,7.35
2022-10-23T02:18:55.367Z,7.05
2022-10-23T02:21:34.319Z,6.20
2022-10-23T02:24:07.094Z,7.20
2022-10-23T02:26:39.496Z,7.18
2022-10-23T02:29:27.950Z,7.32
2022-10-23T02:31:54.224Z,6.65
2022-10-23T02:34:20.480Z,6.63
2022-10-23T02:36:46.757Z,7.88
2022-10-23T02:39:13.030Z,6.88
2022-10-23T02:41:51.176Z,6.10
2022-10-23T02:44:24.605Z,6.63
2022-10-23T02:46:50.839Z,5.53
2022-10-23T02:49:42.228Z,6.70
2022-10-23T02:52:17.946Z,5.47
2022-10-23T02:55:19.673Z,6.25
2022-10-23T02:57:57.097Z,6.05
2022-10-23T03:00:23.861Z,5.07
2022-10-23T03:02:58.771Z,6.32
2022-10-23T03:05:30.343Z,5.70
2022-10-23T03:07:56.600Z,5.65
2022-10-23T03:10:23.095Z,5.45
2022-10-23T03:12:49.439Z,6.63
2022-10-23T03:15:16.325Z,6.47
2022-10-23T03:17:42.724Z,6.80
2022-10-23T03:20:09.374Z,5.40
2022-10-23T03:22:35.663Z,5.72
2022-10-23T03:25:02.163Z,6.05
2022-10-23T03:29:59.615Z,5.40
2022-10-23T03:32:25.878Z,5.47
2022-10-23T03:34:52.143Z,5.90
2022-10-23T03:37:18.436Z,5.38
2022-10-23T03:39:44.787Z,5.60
2022-10-23T03:42:11.138Z,4.85
2022-10-23T03:44:37.379Z,5.18
2022-10-23T03:47:04.024Z,5.07
2022-10-23T03:49:30.310Z,4.65
2022-10-23T03:51:56.685Z,5.72
2022-10-23T03:54:23.949Z,5.70
2022-10-23T03:56:53.618Z,4.68
2022-10-23T03:59:22.887Z,5.72
2022-10-23T04:01:49.484Z,5.68
2022-10-23T04:04:16.026Z,5.05
2022-10-23T04:06:42.337Z,5.10
2022-10-23T04:09:09.130Z,6.70
2022-10-23T04:11:35.472Z,7.57
2022-10-23T04:14:01.750Z,5.38
2022-10-23T04:16:28.043Z,5.20
2022-10-23T04:18:54.315Z,5.20
2022-10-23T04:21:20.590Z,5.38
2022-10-23T04:23:47.003Z,5.40
2022-10-23T04:26:13.282Z,5.93
2022-10-23T04:28:39.620Z,5.85
2022-10-23T04:31:05.972Z,5.45
2022-10-23T04:33:32.215Z,5.22
2022-10-23T04:35:58.458Z,5.53
2022-10-23T04:38:26.043Z,5.63
2022-10-23T04:40:52.304Z,5.07
2022-10-23T04:43:18.552Z,6.07
2022-10-23T04:45:44.843Z,6.10
2022-10-23T04:48:11.123Z,5.70
2022-10-23T04:50:37.382Z,5.57
2022-10-23T04:53:03.699Z,5.95
2022-10-23T04:55:29.955Z,4.88
2022-10-23T04:57:56.215Z,6.25
2022-10-23T05:00:22.595Z,5.00
2022-10-23T05:02:48.895Z,6.30
2022-10-23T05:05:15.171Z,5.43
2022-10-23T05:07:41.793Z,6.03
2022-10-23T05:10:08.623Z,6.00
2022-10-23T05:12:34.867Z,5.30
2022-10-23T05:15:01.303Z,5.47
2022-10-23T05:17:30.082Z,7.72
2022-10-23T05:19:57.847Z,6.95
2022-10-23T05:22:26.707Z,6.60
2022-10-23T05:24:53.741Z,6.68
2022-10-23T05:27:19.995Z,6.72
2022-10-23T05:29:46.228Z,6.15
2022-10-23T05:32:14.287Z,7.03
2022-10-23T05:34:41.214Z,6.97
2022-10-23T05:37:08.484Z,5.95
2022-10-23T05:39:34.994Z,6.05
2022-10-23T05:42:01.278Z,7.22
2022-10-23T05:44:27.578Z,6.28
2022-10-23T05:46:53.863Z,6.25
2022-10-23T05:49:20.157Z,7.43
2022-10-23T05:51:46.433Z,6.60
2022-10-23T05:54:12.707Z,6.97
2022-10-23T05:56:41.515Z,6.00
2022-10-23T05:59:07.971Z,6.47
2022-10-23T06:01:34.345Z,6.38
2022-10-23T06:04:01.374Z,5.63
2022-10-23T06:06:27.637Z,6.88
2022-10-23T06:08:54.335Z,6.20
2022-10-23T06:11:20.663Z,5.63
2022-10-23T06:13:48.303Z,6.07
2022-10-23T06:16:18.499Z,7.22
2022-10-23T06:18:46.039Z,6.13
2022-10-23T06:21:12.417Z,6.85
2022-10-23T06:23:39.220Z,6.18
2022-10-23T06:26:06.588Z,5.72
2022-10-23T06:28:32.836Z,7.30
2022-10-23T06:30:59.095Z,6.20
2022-10-23T06:33:25.347Z,5.65
2022-10-23T06:35:51.598Z,5.28
2022-10-23T06:38:17.873Z,5.72
2022-10-23T06:40:46.939Z,6.60
2022-10-23T06:43:13.187Z,4.93
2022-10-23T06:45:39.800Z,6.20
2022-10-23T06:48:06.135Z,5.40
2022-10-23T06:50:32.410Z,5.18
2022-10-23T06:52:58.663Z,4.63
2022-10-23T06:55:25.060Z,4.57
2022-10-23T06:57:51.323Z,4.50
2022-10-23T07:00:17.579Z,4.90
2022-10-23T07:02:44.084Z,5.07
2022-10-23T07:05:13.530Z,5.97
2022-10-23T07:07:40.198Z,5.07
2022-10-23T07:10:06.668Z,4.82
2022-10-23T07:12:32.996Z,4.88
2022-10-23T07:14:59.239Z,5.15
2022-10-23T07:17:25.502Z,4.05
2022-10-23T07:19:51.774Z,4.13
2022-10-23T07:22:18.030Z,4.25
2022-10-23T07:24:44.266Z,4.50
2022-10-23T07:27:10.640Z,5.10
2022-10-23T07:29:37.002Z,4.25
2022-10-23T07:32:04.445Z,4.50
2022-10-23T07:34:31.601Z,4.40
2022-10-23T07:36:57.868Z,5.75
2022-10-23T07:39:24.159Z,5.03
2022-10-23T07:41:50.427Z,4.93
2022-10-23T07:44:16.704Z,5.72
2022-10-23T07:46:42.947Z,4.25
2022-10-23T07:49:10.130Z,5.00
2022-10-23T07:51:36.500Z,6.28
2022-10-23T07:54:02.775Z,5.50
2022-10-23T07:56:29.899Z,4.43
2022-10-23T07:58:56.203Z,6.25
2022-10-23T08:01:28.529Z,3.92
2022-10-23T08:03:54.874Z,4.20
2022-10-23T08:06:21.139Z,4.60
2022-10-23T08:08:47.482Z,6.07
2022-10-23T08:11:14.767Z,5.05
2022-10-23T08:13:41.183Z,5.70
2022-10-23T08:16:07.638Z,6.13
2022-10-23T08:18:33.995Z,6.15
2022-10-23T08:21:01.311Z,6.10
2022-10-23T08:23:27.900Z,5.50
2022-10-23T08:25:58.991Z,5.88
2022-10-23T08:28:25.403Z,5.22
2022-10-23T08:30:51.668Z,6.05
2022-10-23T08:33:17.906Z,6.07
2022-10-23T08:35:44.188Z,4.97
2022-10-23T08:38:10.522Z,5.47
2022-10-23T08:40:36.883Z,6.07
2022-10-23T08:43:06.012Z,5.38
2022-10-23T08:45:46.466Z,5.72
2022-10-23T08:48:21.208Z,5.45
2022-10-23T08:50:50.519Z,4.82
2022-10-23T08:53:21.065Z,6.28
2022-10-23T08:55:53.165Z,5.78
2022-10-23T08:58:24.790Z,5.72
2022-10-23T09:00:51.448Z,6.50
2022-10-23T09:03:18.183Z,5.25
2022-10-23T09:05:55.928Z,6.63
2022-10-23T09:08:37.155Z,5.43
2022-10-23T09:11:09.554Z,5.10
2022-10-23T09:13:48.047Z,5.28
2022-10-23T09:16:26.230Z,5.72
2022-10-23T09:18:53.406Z,4.78
2022-10-23T09:21:20.831Z,4.90
2022-10-23T09:23:47.193Z,4.90
2022-10-23T09:26:15.031Z,5.97
2022-10-23T09:28:45.392Z,5.00
2022-10-23T09:31:12.484Z,5.22
2022-10-23T09:33:39.123Z,5.97
2022-10-23T09:36:07.175Z,6.53
2022-10-23T09:38:38.427Z,6.93
2022-10-23T09:41:13.243Z,6.03
2022-10-23T09:43:39.933Z,5.60
2022-10-23T09:46:06.764Z,5.72
2022-10-23T09:48:33.889Z,5.80
2022-10-23T09:51:01.378Z,5.28
2022-10-23T09:53:46.503Z,6.03
2022-10-23T09:56:28.063Z,5.75
2022-10-23T09:58:56.426Z,5.78
2022-10-23T10:01:27.497Z,5.47
2022-10-23T10:03:53.844Z,6.50
2022-10-23T10:06:24.995Z,4.93
2022-10-23T10:08:52.850Z,4.90
2022-10-23T10:11:27.528Z,6.38
2022-10-23T10:13:59.971Z,5.15
2022-10-23T10:19:19.886Z,4.72
2022-10-23T10:21:51.158Z,4.65
2022-10-23T10:24:19.896Z,5.38
2022-10-23T10:26:51.031Z,6.00
2022-10-23T10:29:25.891Z,7.53
2022-10-23T10:31:53.177Z,5.45
2022-10-23T10:34:27.899Z,4.82
2022-10-23T10:37:05.870Z,5.53
2022-10-23T10:39:41.124Z,5.20
2022-10-23T10:45:11.987Z,6.53
2022-10-23T10:47:50.868Z,5.50
2022-10-23T10:50:18.982Z,6.00
2022-10-23T10:52:48.358Z,7.90
2022-10-23T10:55:25.247Z,6.15
2022-10-23T10:57:59.176Z,5.22
2022-10-23T11:00:28.469Z,6.05
2022-10-23T11:03:00.004Z,6.95
2022-10-23T11:05:30.967Z,6.25
2022-10-23T11:08:09.367Z,5.25
2022-10-23T11:10:38.120Z,4.70
2022-10-23T11:13:04.507Z,5.75
2022-10-23T11:15:42.688Z,4.50
2022-10-23T11:18:15.333Z,4.75
2022-10-23T11:21:08.186Z,4.75
2022-10-23T11:23:41.052Z,5.65
2022-10-23T11:26:31.135Z,5.43
2022-10-23T11:29:09.374Z,5.03
2022-10-23T11:31:42.655Z,4.95
2022-10-23T11:34:31.970Z,5.20
2022-10-23T11:36:59.219Z,5.38
2022-10-23T11:39:29.738Z,5.10
2022-10-23T11:41:57.985Z,5.15
2022-10-23T11:44:30.296Z,5.95
2022-10-23T11:47:00.814Z,4.50
2022-10-23T11:49:27.132Z,4.72
2022-10-23T11:52:00.504Z,4.65
2022-10-23T11:54:27.361Z,4.93
2022-10-23T11:56:57.100Z,4.63
2022-10-23T11:59:31.649Z,6.18
2022-10-23T12:01:59.515Z,4.30
2022-10-23T12:04:39.747Z,4.60
2022-10-23T12:07:15.825Z,4.55
2022-10-23T12:09:44.138Z,3.70
2022-10-23T12:12:10.444Z,4.63
2022-10-23T12:14:41.235Z,4.93
2022-10-23T12:17:22.732Z,4.25
2022-10-23T12:19:50.415Z,5.75
2022-10-23T12:22:16.889Z,4.25
2022-10-23T12:24:52.194Z,4.55
2022-10-23T12:27:27.719Z,4.30
2022-10-23T12:30:12.638Z,5.28
2022-10-23T12:32:48.004Z,3.95
2022-10-23T12:35:17.349Z,3.72
2022-10-23T12:37:46.455Z,4.10
2022-10-23T12:40:12.831Z,4.05
2022-10-23T12:42:39.162Z,4.15
2022-10-23T12:45:18.933Z,4.70
2022-10-23T12:47:45.642Z,4.20
2022-10-23T12:50:19.659Z,3.97
2022-10-23T12:52:52.663Z,3.75
2022-10-23T12:55:19.052Z,5.10
2022-10-23T12:57:46.145Z,4.05
2022-10-23T13:00:17.180Z,3.80
2022-10-23T13:02:43.509Z,4.65
2022-10-23T13:05:13.163Z,3.53
2022-10-23T13:07:43.828Z,3.80
2022-10-23T13:10:14.731Z,3.58
2022-10-23T13:15:10.875Z,3.63
2022-10-23T13:17:38.408Z,3.80
2022-10-23T13:20:16.835Z,3.92
2022-10-23T13:22:43.689Z,3.70
2022-10-23T13:25:23.330Z,3.67
2022-10-23T13:27:49.613Z,3.70
2022-10-23T13:30:29.056Z,4.80
2022-10-23T13:32:55.314Z,3.92
2022-10-23T13:35:22.428Z,3.67
2022-10-23T13:37:49.097Z,3.63
2022-10-23T13:40:23.637Z,3.70
2022-10-23T13:42:50.757Z,3.80
2022-10-23T13:45:19.930Z,3.90
2022-10-23T13:47:46.467Z,3.67
2022-10-23T13:50:12.938Z,3.90
2022-10-23T13:52:39.198Z,3.83
2022-10-23T13:55:18.394Z,3.45
2022-10-23T13:57:44.944Z,3.88
2022-10-23T14:00:11.807Z,4.07
2022-10-23T14:02:38.178Z,5.28
2022-10-23T14:05:04.602Z,2.95
2022-10-23T14:07:30.842Z,3.53
2022-10-23T14:09:57.110Z,3.72
2022-10-23T14:12:23.372Z,4.18
2022-10-23T14:14:53.047Z,3.15
2022-10-23T14:17:20.243Z,3.67
2022-10-23T14:19:46.662Z,3.30
2022-10-23T14:22:12.994Z,4.10
2022-10-23T14:24:39.729Z,3.15
2022-10-23T14:27:05.966Z,3.60
2022-10-23T14:29:32.267Z,4.90
2022-10-23T14:31:58.519Z,3.25
2022-10-23T14:34:24.806Z,3.08
2022-10-23T14:37:03.880Z,3.40
2022-10-23T14:39:34.260Z,3.40
2022-10-23T14:42:00.508Z,3.72
2022-10-23T14:44:26.883Z,4.22
2022-10-23T14:46:53.144Z,3.13
2022-10-23T14:49:19.408Z,3.45
2022-10-23T14:51:45.678Z,3.45
2022-10-23T14:54:11.930Z,3.40
2022-10-23T14:56:39.915Z,3.78
2022-10-23T14:59:06.544Z,3.75
2022-10-23T15:01:37.845Z,3.70
2022-10-23T15:04:05.007Z,3.92
2022-10-23T15:06:32.398Z,3.35
2022-10-23T15:08:58.792Z,3.40
2022-10-23T15:11:25.127Z,3.05
2022-10-23T15:13:51.695Z,3.60
2022-10-23T15:16:18.160Z,3.15
2022-10-23T15:18:44.411Z,3.58
2022-10-23T15:21:10.714Z,3.38
2022-10-23T15:23:38.330Z,3.25
2022-10-23T15:26:06.529Z,3.05
2022-10-23T15:28:32.910Z,3.75
2022-10-23T15:30:59.379Z,3.05
2022-10-23T15:33:25.644Z,3.95
2022-10-23T15:35:52.494Z,3.42
2022-10-23T15:38:18.867Z,4.53
2022-10-23T15:40:45.743Z,3.58
2022-10-23T15:43:13.167Z,3.40
2022-10-23T15:45:39.737Z,2.88
2022-10-23T15:48:06.366Z,5.13
2022-10-23T15:50:33.126Z,3.72
2022-10-23T15:52:59.546Z,4.25
2022-10-23T15:55:25.979Z,4.13
2022-10-23T15:57:52.253Z,4.50
2022-10-23T16:00:20.568Z,3.30
2022-10-23T16:02:47.294Z,3.90
2022-10-23T16:05:14.111Z,3.53
2022-10-23T16:07:40.363Z,3.78
2022-10-23T16:10:06.761Z,3.67
2022-10-23T16:12:32.999Z,2.97
2022-10-23T16:14:59.243Z,3.22
2022-10-23T16:17:25.497Z,3.75
2022-10-23T16:19:51.738Z,3.78
2022-10-23T16:22:18.051Z,4.97
2022-10-23T16:24:45.294Z,3.05
2022-10-23T16:27:11.620Z,3.80
2022-10-23T16:29:37.894Z,3.72
2022-10-23T16:32:04.243Z,3.50
2022-10-23T16:34:30.486Z,4.15
2022-10-23T16:36:56.726Z,4.07
2022-10-23T16:39:23.025Z,4.10
2022-10-23T16:41:49.276Z,4.88
2022-10-23T16:44:15.642Z,5.55
2022-10-23T16:46:41.913Z,4.18
2022-10-23T16:49:08.796Z,4.88
2022-10-23T16:51:35.131Z,5.43
2022-10-23T16:54:01.408Z,4.60
2022-10-23T16:56:31.119Z,4.90
2022-10-23T17:01:30.210Z,5.25
2022-10-23T17:03:56.893Z,4.50
2022-10-23T17:06:24.647Z,4.68
2022-10-23T17:08:51.287Z,5.95
2022-10-23T17:11:18.977Z,5.00
2022-10-23T17:13:58.590Z,4.95
2022-10-23T17:16:27.394Z,4.75
2022-10-23T17:18:54.168Z,4.97
2022-10-23T17:21:21.246Z,4.30
2022-10-23T17:23:48.278Z,5.10
2022-10-23T17:26:15.870Z,4.68
2022-10-23T17:28:42.965Z,6.13
2022-10-23T17:31:16.733Z,4.30
2022-10-23T17:33:43.732Z,4.97
2022-10-23T17:36:10.887Z,4.57
2022-10-23T17:38:37.575Z,4.68
2022-10-23T17:41:04.191Z,5.72
2022-10-23T17:43:30.502Z,4.43
2022-10-23T17:45:56.755Z,5.28
2022-10-23T17:48:23.020Z,4.75
2022-10-23T17:50:49.288Z,5.30
2022-10-23T17:53:15.625Z,5.07
2022-10-23T17:55:41.978Z,6.00
2022-10-23T17:58:08.507Z,5.03
2022-10-23T18:00:36.135Z,4.88
2022-10-23T18:03:02.590Z,5.82
2022-10-23T18:05:28.915Z,4.63
2022-10-23T18:07:55.330Z,4.50
2022-10-23T18:10:21.591Z,4.60
2022-10-23T18:12:47.850Z,4.25
2022-10-23T18:15:14.225Z,5.07
2022-10-23T18:17:40.479Z,5.25
2022-10-23T18:20:07.023Z,4.43
2022-10-23T18:22:33.408Z,4.55
2022-10-23T18:25:00.254Z,4.32
2022-10-23T18:27:26.503Z,4.00
2022-10-23T18:29:53.988Z,5.85
2022-10-23T18:32:20.252Z,4.82
2022-10-23T18:34:47.091Z,4.47
2022-10-23T18:37:13.335Z,5.40
2022-10-23T18:39:39.639Z,5.35
2022-10-23T18:42:05.916Z,5.78
2022-10-23T18:44:32.154Z,4.40
2022-10-23T18:46:59.646Z,4.43
2022-10-23T18:49:25.898Z,5.20
2022-10-23T18:51:52.159Z,4.55
2022-10-23T18:54:19.331Z,5.43
2022-10-23T18:56:45.763Z,4.43
2022-10-23T18:59:13.258Z,5.13
2022-10-23T19:01:39.635Z,4.80
2022-10-23T19:04:05.951Z,5.22
2022-10-23T19:06:32.872Z,4.45
2022-10-23T19:08:59.397Z,5.70
2022-10-23T19:11:26.271Z,4.20
2022-10-23T19:13:52.602Z,4.80
2022-10-23T19:16:21.114Z,4.03
2022-10-23T19:18:50.286Z,4.45
2022-10-23T19:21:17.705Z,3.83
2022-10-23T19:23:44.053Z,4.20
2022-10-23T19:26:11.963Z,3.45
2022-10-23T19:28:39.971Z,5.03
2022-10-23T19:31:07.807Z,4.25
2022-10-23T19:33:36.011Z,4.50
2022-10-23T19:36:05.496Z,4.03
2022-10-23T19:38:34.090Z,3.08
2022-10-23T19:41:00.623Z,2.53
2022-10-23T19:43:26.966Z,5.75
2022-10-23T19:45:53.281Z,3.00
2022-10-23T19:48:19.742Z,3.45
2022-10-23T19:50:46.138Z,3.88
2022-10-23T19:53:12.395Z,4.00
2022-10-23T19:55:38.663Z,7.63
2022-10-23T19:58:04.934Z,3.40
2022-10-23T20:00:31.185Z,3.53
2022-10-23T20:02:57.435Z,3.88
2022-10-23T20:05:23.726Z,4.05
2022-10-23T20:07:50.700Z,4.00
2022-10-23T20:10:17.063Z,3.50
2022-10-23T20:12:47.538Z,3.92
2022-10-23T20:15:23.428Z,4.28
2022-10-23T20:17:49.686Z,4.72
2022-10-23T20:20:15.939Z,3.58
2022-10-23T20:22:44.105Z,3.25
2022-10-23T20:25:10.561Z,4.18
2022-10-23T20:30:08.302Z,3.65
2022-10-23T20:32:34.567Z,3.13
2022-10-23T20:35:00.837Z,3.25
2022-10-23T20:37:27.095Z,3.00
2022-10-23T20:39:54.719Z,4.30
2022-10-23T20:42:21.078Z,3.17
2022-10-23T20:44:47.319Z,4.13
2022-10-23T20:47:13.748Z,4.43
2022-10-23T20:49:40.049Z,4.43
2022-10-23T20:52:06.323Z,3.58
2022-10-23T20:54:32.630Z,3.13
2022-10-23T20:56:58.894Z,4.05
2022-10-23T20:59:25.551Z,4.10
2022-10-23T21:01:53.269Z,3.08
2022-10-23T21:04:21.734Z,3.90
2022-10-23T21:07:08.790Z,3.53
2022-10-23T21:09:36.039Z,3.53
2022-10-23T21:12:02.310Z,4.18
2022-10-23T21:14:28.737Z,3.33
2022-10-23T21:16:55.040Z,5.60
2022-10-23T21:19:21.293Z,5.00
2022-10-23T21:21:47.602Z,4.05
2022-10-23T21:24:15.588Z,4.70
2022-10-23T21:26:42.384Z,4.93
2022-10-23T21:29:23.758Z,5.55
2022-10-23T21:31:58.026Z,4.05
2022-10-23T21:34:25.385Z,5.07
2022-10-23T21:39:38.023Z,3.92
2022-10-23T21:42:04.314Z,5.07
2022-10-23T21:44:30.567Z,4.18
2022-10-23T21:46:56.867Z,4.38
2022-10-23T21:49:23.121Z,4.18
2022-10-23T21:51:49.375Z,4.72
2022-10-23T21:54:15.642Z,4.85
2022-10-23T21:56:43.148Z,4.50
2022-10-23T21:59:12.822Z,4.82
2022-10-23T22:01:39.860Z,3.53
2022-10-23T22:04:06.190Z,4.60
2022-10-23T22:06:32.434Z,3.70
2022-10-23T22:08:59.276Z,3.97
2022-10-23T22:11:26.102Z,4.38
2022-10-23T22:13:52.586Z,4.35
2022-10-23T22:16:20.196Z,4.18
2022-10-23T22:18:46.860Z,4.63
2022-10-23T22:21:14.654Z,5.20
2022-10-23T22:23:41.104Z,3.80
2022-10-23T22:26:09.277Z,3.83
2022-10-23T22:28:35.522Z,4.75
2022-10-23T22:31:01.923Z,4.32
2022-10-23T22:33:28.907Z,3.78
2022-10-23T22:36:01.923Z,4.25
2022-10-23T22:38:28.243Z,4.47
2022-10-23T22:40:54.511Z,3.72
2022-10-23T22:43:20.787Z,4.50
2022-10-23T22:45:47.039Z,4.32
2022-10-23T22:48:13.297Z,4.22
2022-10-23T22:50:39.534Z,4.13
2022-10-23T22:53:05.787Z,3.33
2022-10-23T22:55:32.049Z,3.40
2022-10-23T22:57:58.303Z,3.00
2022-10-23T23:00:24.574Z,3.95
2022-10-23T23:02:50.864Z,4.13
2022-10-23T23:05:17.182Z,3.25
2022-10-23T23:07:43.802Z,3.35
2022-10-23T23:10:10.230Z,3.13
2022-10-23T23:12:37.827Z,3.20
2022-10-23T23:15:04.483Z,2.80
2022-10-23T23:17:30.738Z,3.40
2022-10-23T23:19:57.016Z,2.80
2022-10-23T23:22:23.375Z,2.67
2022-10-23T23:24:49.687Z,3.75
2022-10-23T23:27:15.940Z,3.55
2022-10-23T23:29:42.201Z,3.47
2022-10-23T23:32:08.503Z,3.42
2022-10-23T23:34:34.748Z,3.78
2022-10-23T23:37:00.999Z,4.13
2022-10-23T23:39:28.360Z,2.92
2022-10-23T23:41:54.662Z,3.55
2022-10-23T23:44:21.004Z,4.10
2022-10-23T23:46:47.266Z,3.17
2022-10-23T23:49:13.517Z,3.75
2022-10-23T23:51:39.766Z,3.70
2022-10-23T23:54:06.062Z,4.20
2022-10-23T23:56:32.379Z,3.30
2022-10-23T23:58:58.896Z,3.88
